| time (UTC) | temp C | wind direction | speed KPH | gust KPH | rain 1hr cm | rain 24hr cm | rain mn cm | humidity % | barometer mb |
| 20260906073402 | 22 | 360 | 22.5 | 0.0 | 0.00 | 0.00 | 0.00 | 65 | 1018.0 |
| 20260906071903 | 22 | 360 | 22.5 | 0.0 | 0.00 | 0.00 | 0.00 | 65 | 1018.0 |
| 20260906070402 | 22 | 360 | 22.5 | 0.0 | 0.00 | 0.00 | 0.00 | 65 | 1018.0 |
| 20260906064902 | 22 | 360 | 22.5 | 0.0 | 0.00 | 0.00 | 0.00 | 69 | 1017.0 |
| 20260906063403 | 22 | 360 | 22.5 | 0.0 | 0.00 | 0.00 | 0.00 | 69 | 1017.0 |
| 20260906062026 | -17 | 0.0 | 0.0 | 0.00 | 0.00 | 0.00 | |||
| 20260906060402 | 22 | 360 | 22.5 | 0.0 | 0.00 | 0.00 | 0.00 | 69 | 1017.0 |
| 20260906054928 | 21 | 360 | 22.5 | 0.0 | 0.00 | 0.00 | 0.00 | 73 | 1016.0 |
| 20260906053402 | 21 | 360 | 22.5 | 0.0 | 0.00 | 0.00 | 0.00 | 73 | 1016.0 |
| 20260906051903 | 21 | 360 | 22.5 | 0.0 | 0.00 | 0.00 | 0.00 | 73 | 1016.0 |
| 20260906050525 | -17 | 0.0 | 0.0 | 0.00 | 0.00 | 0.00 | |||
| 20260906045025 | -17 | 0.0 | 0.0 | 0.00 | 0.00 | 0.00 | |||
| 20260906043514 | -17 | 0.0 | 0.0 | 0.00 | 0.00 | 0.00 | |||
| 20260906042026 | -17 | 0.0 | 0.0 | 0.00 | 0.00 | 0.00 | |||
| 20260906040422 | 21 | 360 | 25.7 | 0.0 | 0.00 | 0.00 | 0.00 | 78 | 1016.0 |
| 20260906034926 | -17 | 0.0 | 0.0 | 0.00 | 0.00 | 0.00 | |||
| 20260906033526 | -17 | 0.0 | 0.0 | 0.00 | 0.00 | 0.00 | |||
| 20260906032027 | -17 | 0.0 | 0.0 | 0.00 | 0.00 | 0.00 | |||
| 20260906030526 | -17 | 0.0 | 0.0 | 0.00 | 0.00 | 0.00 | |||
| 20260906024930 | 18 | 240 | 14.5 | 0.0 | 0.00 | 0.00 | 0.00 | 88 | 1015.0 |
| 20260906023403 | -17 | 0.0 | 0.0 | 0.00 | 0.00 | 0.00 | |||
| 20260906021909 | -17 | 0.0 | 0.0 | 0.00 | 0.00 | 0.00 | |||
| 20260906020404 | -17 | 0.0 | 0.0 | 0.00 | 0.00 | 0.00 | |||
| 20260906014904 | -17 | 0.0 | 0.0 | 0.00 | 0.00 | 0.00 | |||
| 20260906013526 | -17 | 0.0 | 0.0 | 0.00 | 0.00 | 0.00 | |||
| 20260906011902 | -17 | 0.0 | 0.0 | 0.00 | 0.00 | 0.00 | |||
| 20260906010402 | -17 | 0.0 | 0.0 | 0.00 | 0.00 | 0.00 | |||
| 20260906005026 | -17 | 0.0 | 0.0 | 0.00 | 0.00 | 0.00 | |||
| 20260906003536 | -17 | 0.0 | 0.0 | 0.00 | 0.00 | 0.00 | |||
| 20260906002027 | -17 | 0.0 | 0.0 | 0.00 | 0.00 | 0.00 | |||
| 20260906000516 | -17 | 0.0 | 0.0 | 0.00 | 0.00 | 0.00 | |||
| 20260905234913 | -17 | 0.0 | 0.0 | 0.00 | 0.00 | 0.00 | |||
| 20260905233402 | -17 | 0.0 | 0.0 | 0.00 | 0.00 | 0.00 | |||
| 20260905232028 | -17 | 0.0 | 0.0 | 0.00 | 0.00 | 0.00 | |||
| 20260905230435 | -17 | 0.0 | 0.0 | 0.00 | 0.00 | 0.00 | |||
| 20260905225027 | -17 | 0.0 | 0.0 | 0.00 | 0.00 | 0.00 | |||
| 20260905223416 | -17 | 0.0 | 0.0 | 0.00 | 0.00 | 0.00 | |||
| 20260905222012 | -17 | 0.0 | 0.0 | 0.00 | 0.00 | 0.00 | |||
| 20260905220526 | -17 | 0.0 | 0.0 | 0.00 | 0.00 | 0.00 | |||
| 20260905215025 | -17 | 0.0 | 0.0 | 0.00 | 0.00 | 0.00 | |||
| 20260905213403 | -17 | 0.0 | 0.0 | 0.00 | 0.00 | 0.00 | |||
| 20260905211859 | -17 | 0.0 | 0.0 | 0.00 | 0.00 | 0.00 | |||
| 20260905210403 | -17 | 0.0 | 0.0 | 0.00 | 0.00 | 0.00 | |||
| 20260905204913 | 22 | 170 | 14.5 | 0.0 | 0.00 | 0.00 | 0.00 | 73 | 1014.0 |
| 20260905203402 | 22 | 170 | 14.5 | 0.0 | 0.00 | 0.00 | 0.00 | 73 | 1014.0 |
| 20260905201902 | 22 | 170 | 14.5 | 0.0 | 0.00 | 0.00 | 0.00 | 73 | 1014.0 |
| 20260905200526 | -17 | 0.0 | 0.0 | 0.00 | 0.00 | 0.00 | |||
| 20260905195024 | -17 | 0.0 | 0.0 | 0.00 | 0.00 | 0.00 | |||
| 20260905193403 | 22 | 160 | 11.3 | 0.0 | 0.00 | 0.00 | 0.00 | 65 | 1015.0 |
| 20260905191932 | 22 | 160 | 11.3 | 0.0 | 0.00 | 0.00 | 0.00 | 65 | 1015.0 |
| 20260905190404 | -17 | 0.0 | 0.0 | 0.00 | 0.00 | 0.00 | |||
| 20260905184900 | 23 | 160 | 11.3 | 0.0 | 0.00 | 0.00 | 0.00 | 57 | 1014.0 |
| 20260905183408 | 23 | 160 | 11.3 | 0.0 | 0.00 | 0.00 | 0.00 | 57 | 1014.0 |
| 20260905181900 | 23 | 160 | 11.3 | 0.0 | 0.00 | 0.00 | 0.00 | 57 | 1014.0 |
| 20260905180359 | 23 | 160 | 11.3 | 0.0 | 0.00 | 0.00 | 0.00 | 57 | 1014.0 |
| 20260905174856 | 26 | 170 | 14.5 | 0.0 | 0.00 | 0.00 | 0.00 | 48 | 1014.0 |
| 20260905173402 | 26 | 170 | 14.5 | 0.0 | 0.00 | 0.00 | 0.00 | 48 | 1014.0 |
| 20260905171904 | 26 | 170 | 14.5 | 0.0 | 0.00 | 0.00 | 0.00 | 48 | 1014.0 |
| 20260905170403 | 26 | 170 | 14.5 | 0.0 | 0.00 | 0.00 | 0.00 | 48 | 1014.0 |
| 20260905164903 | 27 | 160 | 17.7 | 0.0 | 0.00 | 0.00 | 0.00 | 62 | 1014.0 |
| 20260905163404 | 27 | 160 | 17.7 | 0.0 | 0.00 | 0.00 | 0.00 | 62 | 1014.0 |
| 20260905161901 | 27 | 160 | 17.7 | 0.0 | 0.00 | 0.00 | 0.00 | 62 | 1014.0 |
| 20260905160403 | 27 | 160 | 17.7 | 0.0 | 0.00 | 0.00 | 0.00 | 62 | 1014.0 |
| 20260905154913 | 27 | 160 | 17.7 | 37.0 | 0.00 | 0.00 | 0.00 | 58 | 1014.0 |
| 20260905153402 | 27 | 160 | 17.7 | 37.0 | 0.00 | 0.00 | 0.00 | 58 | 1014.0 |
| 20260905151903 | 27 | 160 | 17.7 | 37.0 | 0.00 | 0.00 | 0.00 | 58 | 1014.0 |
| 20260905150403 | 27 | 160 | 17.7 | 37.0 | 0.00 | 0.00 | 0.00 | 58 | 1014.0 |
| 20260905144856 | 28 | 160 | 17.7 | 37.0 | 0.00 | 0.00 | 0.00 | 51 | 1014.0 |
| 20260905143402 | 28 | 160 | 17.7 | 37.0 | 0.00 | 0.00 | 0.00 | 51 | 1014.0 |
| 20260905141900 | 28 | 160 | 17.7 | 37.0 | 0.00 | 0.00 | 0.00 | 51 | 1014.0 |
| 20260905140359 | 28 | 160 | 17.7 | 37.0 | 0.00 | 0.00 | 0.00 | 51 | 1014.0 |
| 20260905135023 | -17 | 0.0 | 0.0 | 0.00 | 0.00 | 0.00 | |||
| 20260905133403 | 28 | 160 | 17.7 | 37.0 | 0.00 | 0.00 | 0.00 | 51 | 1014.0 |
| 20260905131905 | 28 | 160 | 17.7 | 37.0 | 0.00 | 0.00 | 0.00 | 51 | 1014.0 |
| 20260905130424 | 28 | 160 | 17.7 | 37.0 | 0.00 | 0.00 | 0.00 | 51 | 1014.0 |
| 20260905124857 | 30 | 160 | 17.7 | 37.0 | 0.00 | 0.00 | 0.00 | 43 | 1015.0 |
| 20260905123403 | 30 | 160 | 17.7 | 37.0 | 0.00 | 0.00 | 0.00 | 43 | 1015.0 |
| 20260905121931 | 30 | 160 | 17.7 | 37.0 | 0.00 | 0.00 | 0.00 | 43 | 1015.0 |
| 20260905120404 | 30 | 160 | 17.7 | 37.0 | 0.00 | 0.00 | 0.00 | 43 | 1015.0 |
| 20260905114903 | 30 | 150 | 17.7 | 37.0 | 0.00 | 0.00 | 0.00 | 46 | 1015.0 |
| 20260905113403 | 30 | 150 | 17.7 | 37.0 | 0.00 | 0.00 | 0.00 | 46 | 1015.0 |
| 20260905111921 | 30 | 150 | 17.7 | 37.0 | 0.00 | 0.00 | 0.00 | 46 | 1015.0 |
| 20260905110402 | 30 | 150 | 17.7 | 37.0 | 0.00 | 0.00 | 0.00 | 46 | 1015.0 |
| 20260905104903 | 31 | 140 | 22.5 | 0.0 | 0.00 | 0.00 | 0.00 | 38 | 1016.0 |
| 20260905103403 | 31 | 140 | 22.5 | 0.0 | 0.00 | 0.00 | 0.00 | 38 | 1016.0 |
| 20260905101902 | 31 | 140 | 22.5 | 0.0 | 0.00 | 0.00 | 0.00 | 38 | 1016.0 |
| 20260905100403 | 31 | 140 | 22.5 | 0.0 | 0.00 | 0.00 | 0.00 | 38 | 1016.0 |
| 20260905095026 | -17 | 0.0 | 0.0 | 0.00 | 0.00 | 0.00 | |||
| 20260905093402 | 31 | 130 | 22.5 | 0.0 | 0.00 | 0.00 | 0.00 | 35 | 1016.0 |
| 20260905091903 | 31 | 130 | 22.5 | 0.0 | 0.00 | 0.00 | 0.00 | 35 | 1016.0 |
| 20260905090403 | 31 | 130 | 22.5 | 0.0 | 0.00 | 0.00 | 0.00 | 35 | 1016.0 |
| 20260905084902 | 30 | 140 | 14.5 | 0.0 | 0.00 | 0.00 | 0.00 | 40 | 1016.0 |
| 20260905083403 | 30 | 140 | 14.5 | 0.0 | 0.00 | 0.00 | 0.00 | 40 | 1016.0 |
| 20260905081902 | 30 | 140 | 14.5 | 0.0 | 0.00 | 0.00 | 0.00 | 40 | 1016.0 |
| 20260905080403 | 30 | 140 | 14.5 | 0.0 | 0.00 | 0.00 | 0.00 | 40 | 1016.0 |
| 20260905074902 | -17 | 0.0 | 0.0 | 0.00 | 0.00 | 0.00 |